sensor_id;sensor_type;location;lat;lon;timestamp;P1;durP1;ratioP1;P2;durP2;ratioP2
14584;SDS011;7379;51.506;11.876;2023-04-30T00:02:26;7.60;;;4.95;;
14584;SDS011;7379;51.506;11.876;2023-04-30T00:04:53;6.22;;;4.88;;
14584;SDS011;7379;51.506;11.876;2023-04-30T00:07:21;6.45;;;4.93;;
14584;SDS011;7379;51.506;11.876;2023-04-30T00:09:48;7.05;;;4.82;;
14584;SDS011;7379;51.506;11.876;2023-04-30T00:12:15;7.57;;;5.35;;
14584;SDS011;7379;51.506;11.876;2023-04-30T00:14:42;6.32;;;5.05;;
14584;SDS011;7379;51.506;11.876;2023-04-30T00:17:08;5.22;;;4.53;;
14584;SDS011;7379;51.506;11.876;2023-04-30T00:19:35;7.78;;;4.60;;
14584;SDS011;7379;51.506;11.876;2023-04-30T00:22:02;5.78;;;4.53;;
14584;SDS011;7379;51.506;11.876;2023-04-30T00:24:30;5.93;;;4.97;;
14584;SDS011;7379;51.506;11.876;2023-04-30T00:26:57;5.35;;;4.80;;
14584;SDS011;7379;51.506;11.876;2023-04-30T00:29:24;7.85;;;4.90;;
14584;SDS011;7379;51.506;11.876;2023-04-30T00:31:51;5.38;;;4.65;;
14584;SDS011;7379;51.506;11.876;2023-04-30T00:34:18;5.97;;;5.10;;
14584;SDS011;7379;51.506;11.876;2023-04-30T00:36:44;5.82;;;5.18;;
14584;SDS011;7379;51.506;11.876;2023-04-30T00:39:11;6.30;;;4.80;;
14584;SDS011;7379;51.506;11.876;2023-04-30T00:41:39;5.63;;;4.93;;
14584;SDS011;7379;51.506;11.876;2023-04-30T00:44:06;6.22;;;5.00;;
14584;SDS011;7379;51.506;11.876;2023-04-30T00:46:33;5.53;;;4.93;;
14584;SDS011;7379;51.506;11.876;2023-04-30T00:49:00;4.95;;;4.45;;
14584;SDS011;7379;51.506;11.876;2023-04-30T00:51:29;6.20;;;4.95;;
14584;SDS011;7379;51.506;11.876;2023-04-30T00:53:58;5.63;;;5.03;;
14584;SDS011;7379;51.506;11.876;2023-04-30T00:56:27;5.60;;;5.00;;
14584;SDS011;7379;51.506;11.876;2023-04-30T00:58:56;5.43;;;4.88;;
14584;SDS011;7379;51.506;11.876;2023-04-30T01:01:23;6.50;;;4.82;;
14584;SDS011;7379;51.506;11.876;2023-04-30T01:03:50;5.78;;;4.97;;
14584;SDS011;7379;51.506;11.876;2023-04-30T01:06:17;6.93;;;4.72;;
14584;SDS011;7379;51.506;11.876;2023-04-30T01:08:44;6.45;;;4.82;;
14584;SDS011;7379;51.506;11.876;2023-04-30T01:11:15;6.53;;;5.18;;
14584;SDS011;7379;51.506;11.876;2023-04-30T01:13:49;5.90;;;4.70;;
14584;SDS011;7379;51.506;11.876;2023-04-30T01:16:26;5.45;;;4.90;;
14584;SDS011;7379;51.506;11.876;2023-04-30T01:18:56;5.65;;;4.95;;
14584;SDS011;7379;51.506;11.876;2023-04-30T01:21:27;5.97;;;4.80;;
14584;SDS011;7379;51.506;11.876;2023-04-30T01:24:14;5.78;;;4.93;;
14584;SDS011;7379;51.506;11.876;2023-04-30T01:26:52;6.00;;;5.03;;
14584;SDS011;7379;51.506;11.876;2023-04-30T01:29:34;6.47;;;4.72;;
14584;SDS011;7379;51.506;11.876;2023-04-30T01:32:03;6.90;;;4.45;;
14584;SDS011;7379;51.506;11.876;2023-04-30T01:34:29;5.63;;;4.70;;
14584;SDS011;7379;51.506;11.876;2023-04-30T01:37:01;7.93;;;4.75;;
14584;SDS011;7379;51.506;11.876;2023-04-30T01:39:45;6.43;;;4.65;;
14584;SDS011;7379;51.506;11.876;2023-04-30T01:42:19;5.20;;;4.70;;
14584;SDS011;7379;51.506;11.876;2023-04-30T01:44:52;6.53;;;4.50;;
14584;SDS011;7379;51.506;11.876;2023-04-30T01:47:28;7.43;;;4.70;;
14584;SDS011;7379;51.506;11.876;2023-04-30T01:50:02;6.18;;;4.82;;
14584;SDS011;7379;51.506;11.876;2023-04-30T01:52:37;5.28;;;4.50;;
14584;SDS011;7379;51.506;11.876;2023-04-30T01:55:07;4.93;;;4.13;;
14584;SDS011;7379;51.506;11.876;2023-04-30T01:57:37;7.70;;;4.53;;
14584;SDS011;7379;51.506;11.876;2023-04-30T02:00:08;5.55;;;4.43;;
14584;SDS011;7379;51.506;11.876;2023-04-30T02:02:36;6.57;;;4.90;;
14584;SDS011;7379;51.506;11.876;2023-04-30T02:05:03;6.28;;;4.72;;
14584;SDS011;7379;51.506;11.876;2023-04-30T02:07:34;6.85;;;4.68;;
14584;SDS011;7379;51.506;11.876;2023-04-30T02:10:05;5.90;;;4.55;;
14584;SDS011;7379;51.506;11.876;2023-04-30T02:12:33;5.18;;;4.43;;
14584;SDS011;7379;51.506;11.876;2023-04-30T02:14:59;4.95;;;4.20;;
14584;SDS011;7379;51.506;11.876;2023-04-30T02:17:28;5.90;;;4.75;;
14584;SDS011;7379;51.506;11.876;2023-04-30T02:19:56;4.60;;;4.20;;
14584;SDS011;7379;51.506;11.876;2023-04-30T02:22:23;5.82;;;4.80;;
14584;SDS011;7379;51.506;11.876;2023-04-30T02:24:50;6.00;;;4.45;;
14584;SDS011;7379;51.506;11.876;2023-04-30T02:27:19;5.53;;;4.30;;
14584;SDS011;7379;51.506;11.876;2023-04-30T02:29:47;5.93;;;4.70;;
14584;SDS011;7379;51.506;11.876;2023-04-30T02:32:14;5.63;;;4.65;;
14584;SDS011;7379;51.506;11.876;2023-04-30T02:34:42;5.78;;;4.45;;
14584;SDS011;7379;51.506;11.876;2023-04-30T02:37:09;5.55;;;4.28;;
14584;SDS011;7379;51.506;11.876;2023-04-30T02:39:36;4.95;;;4.22;;
14584;SDS011;7379;51.506;11.876;2023-04-30T02:42:03;4.38;;;3.97;;
14584;SDS011;7379;51.506;11.876;2023-04-30T02:44:31;5.43;;;4.22;;
14584;SDS011;7379;51.506;11.876;2023-04-30T02:46:58;4.57;;;4.18;;
14584;SDS011;7379;51.506;11.876;2023-04-30T02:49:25;4.50;;;3.90;;
14584;SDS011;7379;51.506;11.876;2023-04-30T02:51:53;6.25;;;4.18;;
14584;SDS011;7379;51.506;11.876;2023-04-30T02:54:20;4.75;;;4.05;;
14584;SDS011;7379;51.506;11.876;2023-04-30T02:56:47;4.93;;;4.00;;
14584;SDS011;7379;51.506;11.876;2023-04-30T02:59:14;4.18;;;3.78;;
14584;SDS011;7379;51.506;11.876;2023-04-30T03:01:40;4.63;;;3.72;;
14584;SDS011;7379;51.506;11.876;2023-04-30T03:04:07;5.13;;;4.07;;
14584;SDS011;7379;51.506;11.876;2023-04-30T03:06:34;4.47;;;4.07;;
14584;SDS011;7379;51.506;11.876;2023-04-30T03:09:02;4.75;;;3.70;;
14584;SDS011;7379;51.506;11.876;2023-04-30T03:11:29;5.50;;;3.92;;
14584;SDS011;7379;51.506;11.876;2023-04-30T03:13:56;4.70;;;4.10;;
14584;SDS011;7379;51.506;11.876;2023-04-30T03:16:22;6.60;;;3.83;;
14584;SDS011;7379;51.506;11.876;2023-04-30T03:18:49;5.43;;;3.88;;
14584;SDS011;7379;51.506;11.876;2023-04-30T03:21:16;4.78;;;3.70;;
14584;SDS011;7379;51.506;11.876;2023-04-30T03:23:43;4.47;;;3.55;;
14584;SDS011;7379;51.506;11.876;2023-04-30T03:26:11;4.10;;;3.70;;
14584;SDS011;7379;51.506;11.876;2023-04-30T03:28:38;4.13;;;3.58;;
14584;SDS011;7379;51.506;11.876;2023-04-30T03:31:05;5.22;;;3.60;;
14584;SDS011;7379;51.506;11.876;2023-04-30T03:33:32;4.70;;;3.60;;
14584;SDS011;7379;51.506;11.876;2023-04-30T03:35:58;4.15;;;3.63;;
14584;SDS011;7379;51.506;11.876;2023-04-30T03:38:25;3.90;;;3.42;;
14584;SDS011;7379;51.506;11.876;2023-04-30T03:40:52;4.75;;;3.63;;
14584;SDS011;7379;51.506;11.876;2023-04-30T03:43:20;4.43;;;3.80;;
14584;SDS011;7379;51.506;11.876;2023-04-30T03:45:47;4.65;;;3.60;;
14584;SDS011;7379;51.506;11.876;2023-04-30T03:48:14;4.63;;;3.45;;
14584;SDS011;7379;51.506;11.876;2023-04-30T03:50:40;4.85;;;3.67;;
14584;SDS011;7379;51.506;11.876;2023-04-30T03:53:07;4.00;;;3.60;;
14584;SDS011;7379;51.506;11.876;2023-04-30T03:55:34;4.68;;;3.50;;
14584;SDS011;7379;51.506;11.876;2023-04-30T03:58:01;4.45;;;3.55;;
14584;SDS011;7379;51.506;11.876;2023-04-30T04:00:29;5.20;;;3.50;;
14584;SDS011;7379;51.506;11.876;2023-04-30T04:02:56;6.47;;;4.43;;
14584;SDS011;7379;51.506;11.876;2023-04-30T04:05:24;4.60;;;4.03;;
14584;SDS011;7379;51.506;11.876;2023-04-30T04:07:51;5.90;;;4.22;;
14584;SDS011;7379;51.506;11.876;2023-04-30T04:10:17;5.90;;;3.80;;
14584;SDS011;7379;51.506;11.876;2023-04-30T04:12:44;6.25;;;3.45;;
14584;SDS011;7379;51.506;11.876;2023-04-30T04:15:11;4.43;;;3.60;;
14584;SDS011;7379;51.506;11.876;2023-04-30T04:17:39;5.40;;;4.20;;
14584;SDS011;7379;51.506;11.876;2023-04-30T04:20:07;4.20;;;3.50;;
14584;SDS011;7379;51.506;11.876;2023-04-30T04:22:34;4.97;;;4.20;;
14584;SDS011;7379;51.506;11.876;2023-04-30T04:25:01;5.47;;;3.92;;
14584;SDS011;7379;51.506;11.876;2023-04-30T04:27:28;5.28;;;4.10;;
14584;SDS011;7379;51.506;11.876;2023-04-30T04:29:54;5.43;;;3.70;;
14584;SDS011;7379;51.506;11.876;2023-04-30T04:32:21;4.78;;;3.95;;
14584;SDS011;7379;51.506;11.876;2023-04-30T04:34:50;4.13;;;3.60;;
14584;SDS011;7379;51.506;11.876;2023-04-30T04:37:18;4.70;;;3.45;;
14584;SDS011;7379;51.506;11.876;2023-04-30T04:39:45;4.20;;;3.60;;
14584;SDS011;7379;51.506;11.876;2023-04-30T04:42:12;4.22;;;3.83;;
14584;SDS011;7379;51.506;11.876;2023-04-30T04:44:40;5.35;;;3.95;;
14584;SDS011;7379;51.506;11.876;2023-04-30T04:47:07;6.38;;;3.90;;
14584;SDS011;7379;51.506;11.876;2023-04-30T04:49:36;4.47;;;3.80;;
14584;SDS011;7379;51.506;11.876;2023-04-30T04:52:04;6.30;;;3.95;;
14584;SDS011;7379;51.506;11.876;2023-04-30T04:54:31;3.92;;;3.53;;
14584;SDS011;7379;51.506;11.876;2023-04-30T04:56:58;6.18;;;4.28;;
14584;SDS011;7379;51.506;11.876;2023-04-30T04:59:25;6.60;;;4.03;;
14584;SDS011;7379;51.506;11.876;2023-04-30T05:01:52;5.70;;;3.53;;
14584;SDS011;7379;51.506;11.876;2023-04-30T05:04:18;5.85;;;4.18;;
14584;SDS011;7379;51.506;11.876;2023-04-30T05:06:45;5.95;;;3.70;;
14584;SDS011;7379;51.506;11.876;2023-04-30T05:09:13;6.97;;;4.03;;
14584;SDS011;7379;51.506;11.876;2023-04-30T05:11:40;5.47;;;4.00;;
14584;SDS011;7379;51.506;11.876;2023-04-30T05:14:08;4.18;;;3.53;;
14584;SDS011;7379;51.506;11.876;2023-04-30T05:16:35;5.67;;;3.93;;
14584;SDS011;7379;51.506;11.876;2023-04-30T05:19:02;4.90;;;3.73;;
14584;SDS011;7379;51.506;11.876;2023-04-30T05:21:29;6.70;;;4.13;;
14584;SDS011;7379;51.506;11.876;2023-04-30T05:23:56;5.67;;;3.83;;
14584;SDS011;7379;51.506;11.876;2023-04-30T05:26:24;4.38;;;3.53;;
14584;SDS011;7379;51.506;11.876;2023-04-30T05:28:51;4.82;;;3.78;;
14584;SDS011;7379;51.506;11.876;2023-04-30T05:31:26;4.15;;;3.55;;
14584;SDS011;7379;51.506;11.876;2023-04-30T05:33:53;4.78;;;3.58;;
14584;SDS011;7379;51.506;11.876;2023-04-30T05:36:20;4.97;;;3.63;;
14584;SDS011;7379;51.506;11.876;2023-04-30T05:38:47;5.07;;;3.60;;
14584;SDS011;7379;51.506;11.876;2023-04-30T05:41:13;5.15;;;3.47;;
14584;SDS011;7379;51.506;11.876;2023-04-30T05:43:41;5.13;;;3.50;;
14584;SDS011;7379;51.506;11.876;2023-04-30T05:46:08;5.43;;;3.50;;
14584;SDS011;7379;51.506;11.876;2023-04-30T05:48:35;6.47;;;4.00;;
14584;SDS011;7379;51.506;11.876;2023-04-30T05:51:03;5.70;;;3.60;;
14584;SDS011;7379;51.506;11.876;2023-04-30T05:53:30;6.47;;;3.63;;
14584;SDS011;7379;51.506;11.876;2023-04-30T05:55:57;6.03;;;3.42;;
14584;SDS011;7379;51.506;11.876;2023-04-30T05:58:24;6.13;;;3.72;;
14584;SDS011;7379;51.506;11.876;2023-04-30T06:00:52;6.55;;;3.80;;
14584;SDS011;7379;51.506;11.876;2023-04-30T06:03:19;6.70;;;3.50;;
14584;SDS011;7379;51.506;11.876;2023-04-30T06:05:46;4.78;;;3.50;;
14584;SDS011;7379;51.506;11.876;2023-04-30T06:08:13;5.10;;;3.65;;
14584;SDS011;7379;51.506;11.876;2023-04-30T06:10:40;5.95;;;3.30;;
14584;SDS011;7379;51.506;11.876;2023-04-30T06:13:07;5.60;;;3.13;;
14584;SDS011;7379;51.506;11.876;2023-04-30T06:15:34;5.20;;;3.25;;
14584;SDS011;7379;51.506;11.876;2023-04-30T06:18:02;6.35;;;3.75;;
14584;SDS011;7379;51.506;11.876;2023-04-30T06:20:29;5.38;;;3.22;;
14584;SDS011;7379;51.506;11.876;2023-04-30T06:22:56;5.88;;;3.70;;
14584;SDS011;7379;51.506;11.876;2023-04-30T06:25:24;5.63;;;3.17;;
14584;SDS011;7379;51.506;11.876;2023-04-30T06:27:51;8.48;;;3.58;;
14584;SDS011;7379;51.506;11.876;2023-04-30T06:30:18;4.50;;;3.17;;
14584;SDS011;7379;51.506;11.876;2023-04-30T06:32:45;6.38;;;3.50;;
14584;SDS011;7379;51.506;11.876;2023-04-30T06:35:14;5.43;;;3.30;;
14584;SDS011;7379;51.506;11.876;2023-04-30T06:37:40;4.55;;;3.05;;
14584;SDS011;7379;51.506;11.876;2023-04-30T06:40:07;4.53;;;3.00;;
14584;SDS011;7379;51.506;11.876;2023-04-30T06:42:34;7.45;;;3.17;;
14584;SDS011;7379;51.506;11.876;2023-04-30T06:45:01;5.25;;;3.00;;
14584;SDS011;7379;51.506;11.876;2023-04-30T06:47:30;6.82;;;3.50;;
14584;SDS011;7379;51.506;11.876;2023-04-30T06:49:58;7.03;;;3.30;;
14584;SDS011;7379;51.506;11.876;2023-04-30T06:52:26;5.28;;;3.10;;
14584;SDS011;7379;51.506;11.876;2023-04-30T06:54:53;6.47;;;3.22;;
14584;SDS011;7379;51.506;11.876;2023-04-30T06:57:20;5.03;;;3.05;;
14584;SDS011;7379;51.506;11.876;2023-04-30T06:59:47;4.35;;;3.10;;
14584;SDS011;7379;51.506;11.876;2023-04-30T07:02:13;6.28;;;3.15;;
14584;SDS011;7379;51.506;11.876;2023-04-30T07:04:40;5.97;;;3.33;;
14584;SDS011;7379;51.506;11.876;2023-04-30T07:07:07;6.00;;;3.40;;
14584;SDS011;7379;51.506;11.876;2023-04-30T07:09:35;4.63;;;3.00;;
14584;SDS011;7379;51.506;11.876;2023-04-30T07:12:02;6.07;;;3.20;;
14584;SDS011;7379;51.506;11.876;2023-04-30T07:14:29;4.30;;;3.22;;
14584;SDS011;7379;51.506;11.876;2023-04-30T07:16:56;5.55;;;3.00;;
14584;SDS011;7379;51.506;11.876;2023-04-30T07:19:22;6.78;;;3.15;;
14584;SDS011;7379;51.506;11.876;2023-04-30T07:21:51;7.55;;;3.17;;
14584;SDS011;7379;51.506;11.876;2023-04-30T07:24:17;6.30;;;2.72;;
14584;SDS011;7379;51.506;11.876;2023-04-30T07:26:45;5.07;;;2.90;;
14584;SDS011;7379;51.506;11.876;2023-04-30T07:29:12;5.95;;;3.30;;
14584;SDS011;7379;51.506;11.876;2023-04-30T07:31:39;4.65;;;3.22;;
14584;SDS011;7379;51.506;11.876;2023-04-30T07:34:06;6.88;;;3.40;;
14584;SDS011;7379;51.506;11.876;2023-04-30T07:36:33;6.53;;;2.97;;
14584;SDS011;7379;51.506;11.876;2023-04-30T07:38:59;5.50;;;3.33;;
14584;SDS011;7379;51.506;11.876;2023-04-30T07:41:26;7.40;;;3.58;;
14584;SDS011;7379;51.506;11.876;2023-04-30T07:43:54;8.00;;;3.30;;
14584;SDS011;7379;51.506;11.876;2023-04-30T07:46:21;6.15;;;3.05;;
14584;SDS011;7379;51.506;11.876;2023-04-30T07:48:49;8.40;;;3.83;;
14584;SDS011;7379;51.506;11.876;2023-04-30T07:51:16;6.78;;;3.60;;
14584;SDS011;7379;51.506;11.876;2023-04-30T07:53:43;6.40;;;3.60;;
14584;SDS011;7379;51.506;11.876;2023-04-30T07:56:10;6.00;;;3.50;;
14584;SDS011;7379;51.506;11.876;2023-04-30T07:58:37;6.80;;;3.17;;
14584;SDS011;7379;51.506;11.876;2023-04-30T08:01:05;7.15;;;3.47;;
14584;SDS011;7379;51.506;11.876;2023-04-30T08:03:32;5.35;;;3.10;;
14584;SDS011;7379;51.506;11.876;2023-04-30T08:06:00;7.20;;;3.83;;
14584;SDS011;7379;51.506;11.876;2023-04-30T08:08:27;6.65;;;3.60;;
14584;SDS011;7379;51.506;11.876;2023-04-30T08:10:54;5.85;;;3.38;;
14584;SDS011;7379;51.506;11.876;2023-04-30T08:13:21;7.43;;;3.33;;
14584;SDS011;7379;51.506;11.876;2023-04-30T08:15:47;5.75;;;3.58;;
14584;SDS011;7379;51.506;11.876;2023-04-30T08:18:16;6.50;;;3.30;;
14584;SDS011;7379;51.506;11.876;2023-04-30T08:20:42;5.60;;;3.53;;
14584;SDS011;7379;51.506;11.876;2023-04-30T08:23:09;6.63;;;3.13;;
14584;SDS011;7379;51.506;11.876;2023-04-30T08:25:36;7.50;;;3.10;;
14584;SDS011;7379;51.506;11.876;2023-04-30T08:28:03;6.40;;;3.30;;
14584;SDS011;7379;51.506;11.876;2023-04-30T08:30:30;6.32;;;3.15;;
14584;SDS011;7379;51.506;11.876;2023-04-30T08:32:56;7.97;;;3.60;;
14584;SDS011;7379;51.506;11.876;2023-04-30T08:35:25;8.53;;;3.60;;
14584;SDS011;7379;51.506;11.876;2023-04-30T08:37:53;6.18;;;3.03;;
14584;SDS011;7379;51.506;11.876;2023-04-30T08:40:20;6.72;;;3.08;;
14584;SDS011;7379;51.506;11.876;2023-04-30T08:42:49;5.78;;;3.47;;
14584;SDS011;7379;51.506;11.876;2023-04-30T08:45:19;8.88;;;3.78;;
14584;SDS011;7379;51.506;11.876;2023-04-30T08:47:46;4.60;;;3.40;;
14584;SDS011;7379;51.506;11.876;2023-04-30T08:50:14;6.15;;;3.92;;
14584;SDS011;7379;51.506;11.876;2023-04-30T08:52:43;7.18;;;3.42;;
14584;SDS011;7379;51.506;11.876;2023-04-30T08:55:09;5.88;;;3.30;;
14584;SDS011;7379;51.506;11.876;2023-04-30T08:57:36;8.07;;;3.35;;
14584;SDS011;7379;51.506;11.876;2023-04-30T09:00:04;6.40;;;3.10;;
14584;SDS011;7379;51.506;11.876;2023-04-30T09:02:42;5.73;;;3.30;;
14584;SDS011;7379;51.506;11.876;2023-04-30T09:05:10;6.35;;;3.60;;
14584;SDS011;7379;51.506;11.876;2023-04-30T09:07:39;4.82;;;3.40;;
14584;SDS011;7379;51.506;11.876;2023-04-30T09:10:14;6.43;;;4.00;;
14584;SDS011;7379;51.506;11.876;2023-04-30T09:12:41;6.97;;;3.53;;
14584;SDS011;7379;51.506;11.876;2023-04-30T09:15:10;8.93;;;3.97;;
14584;SDS011;7379;51.506;11.876;2023-04-30T09:17:37;11.77;;;4.00;;
14584;SDS011;7379;51.506;11.876;2023-04-30T09:20:08;8.02;;;3.97;;
14584;SDS011;7379;51.506;11.876;2023-04-30T09:22:36;7.90;;;3.83;;
14584;SDS011;7379;51.506;11.876;2023-04-30T09:25:03;7.82;;;3.88;;
14584;SDS011;7379;51.506;11.876;2023-04-30T09:27:33;7.23;;;3.73;;
14584;SDS011;7379;51.506;11.876;2023-04-30T09:30:00;9.63;;;3.87;;
14584;SDS011;7379;51.506;11.876;2023-04-30T09:32:27;9.83;;;3.80;;
14584;SDS011;7379;51.506;11.876;2023-04-30T09:34:54;7.10;;;3.85;;
14584;SDS011;7379;51.506;11.876;2023-04-30T09:37:21;7.47;;;4.10;;
14584;SDS011;7379;51.506;11.876;2023-04-30T09:39:48;12.80;;;4.32;;
14584;SDS011;7379;51.506;11.876;2023-04-30T09:42:16;8.27;;;3.78;;
14584;SDS011;7379;51.506;11.876;2023-04-30T09:44:45;10.20;;;3.75;;
14584;SDS011;7379;51.506;11.876;2023-04-30T09:47:13;9.55;;;4.05;;
14584;SDS011;7379;51.506;11.876;2023-04-30T09:49:41;6.87;;;3.60;;
14584;SDS011;7379;51.506;11.876;2023-04-30T09:52:09;7.80;;;3.58;;
14584;SDS011;7379;51.506;11.876;2023-04-30T09:54:37;7.47;;;3.65;;
14584;SDS011;7379;51.506;11.876;2023-04-30T09:57:04;8.50;;;3.92;;
14584;SDS011;7379;51.506;11.876;2023-04-30T09:59:35;8.48;;;3.92;;
14584;SDS011;7379;51.506;11.876;2023-04-30T10:02:05;7.83;;;3.73;;
14584;SDS011;7379;51.506;11.876;2023-04-30T10:04:33;7.55;;;3.78;;
14584;SDS011;7379;51.506;11.876;2023-04-30T10:07:02;7.10;;;3.67;;
14584;SDS011;7379;51.506;11.876;2023-04-30T10:09:34;5.70;;;3.67;;
14584;SDS011;7379;51.506;11.876;2023-04-30T10:12:04;7.82;;;4.00;;
14584;SDS011;7379;51.506;11.876;2023-04-30T10:14:36;8.97;;;4.10;;
14584;SDS011;7379;51.506;11.876;2023-04-30T10:17:07;7.18;;;3.80;;
14584;SDS011;7379;51.506;11.876;2023-04-30T10:19:38;4.63;;;3.60;;
14584;SDS011;7379;51.506;11.876;2023-04-30T10:22:08;10.27;;;3.90;;
14584;SDS011;7379;51.506;11.876;2023-04-30T10:24:36;6.10;;;3.70;;
14584;SDS011;7379;51.506;11.876;2023-04-30T10:27:03;7.18;;;3.58;;
14584;SDS011;7379;51.506;11.876;2023-04-30T10:29:30;6.32;;;3.85;;
14584;SDS011;7379;51.506;11.876;2023-04-30T10:31:57;9.43;;;3.95;;
14584;SDS011;7379;51.506;11.876;2023-04-30T10:34:30;8.80;;;3.60;;
14584;SDS011;7379;51.506;11.876;2023-04-30T10:37:03;5.23;;;3.47;;
14584;SDS011;7379;51.506;11.876;2023-04-30T10:39:36;7.03;;;3.75;;
14584;SDS011;7379;51.506;11.876;2023-04-30T10:42:04;6.40;;;3.63;;
14584;SDS011;7379;51.506;11.876;2023-04-30T10:44:32;5.85;;;3.92;;
14584;SDS011;7379;51.506;11.876;2023-04-30T10:46:58;7.20;;;3.80;;
14584;SDS011;7379;51.506;11.876;2023-04-30T10:49:26;7.47;;;3.70;;
14584;SDS011;7379;51.506;11.876;2023-04-30T10:51:57;5.40;;;3.67;;
14584;SDS011;7379;51.506;11.876;2023-04-30T10:54:25;5.60;;;3.65;;
14584;SDS011;7379;51.506;11.876;2023-04-30T10:56:53;7.63;;;3.43;;
14584;SDS011;7379;51.506;11.876;2023-04-30T10:59:22;8.10;;;3.58;;
14584;SDS011;7379;51.506;11.876;2023-04-30T11:01:56;12.38;;;3.67;;
14584;SDS011;7379;51.506;11.876;2023-04-30T11:04:24;6.80;;;3.40;;
14584;SDS011;7379;51.506;11.876;2023-04-30T11:07:00;6.00;;;3.80;;
14584;SDS011;7379;51.506;11.876;2023-04-30T11:09:36;8.60;;;4.03;;
14584;SDS011;7379;51.506;11.876;2023-04-30T11:12:09;6.25;;;4.05;;
14584;SDS011;7379;51.506;11.876;2023-04-30T11:14:41;5.85;;;3.60;;
14584;SDS011;7379;51.506;11.876;2023-04-30T11:17:09;7.63;;;4.00;;
14584;SDS011;7379;51.506;11.876;2023-04-30T11:19:41;8.83;;;4.20;;
14584;SDS011;7379;51.506;11.876;2023-04-30T11:22:17;6.53;;;4.00;;
14584;SDS011;7379;51.506;11.876;2023-04-30T11:27:35;9.15;;;3.45;;
14584;SDS011;7379;51.506;11.876;2023-04-30T11:30:08;5.50;;;3.60;;
14584;SDS011;7379;51.506;11.876;2023-04-30T11:32:37;6.30;;;3.22;;
14584;SDS011;7379;51.506;11.876;2023-04-30T11:35:05;6.82;;;3.55;;
14584;SDS011;7379;51.506;11.876;2023-04-30T11:37:34;6.05;;;3.70;;
14584;SDS011;7379;51.506;11.876;2023-04-30T11:40:03;9.63;;;3.95;;
14584;SDS011;7379;51.506;11.876;2023-04-30T11:42:32;8.52;;;3.90;;
14584;SDS011;7379;51.506;11.876;2023-04-30T11:45:03;6.63;;;3.78;;
14584;SDS011;7379;51.506;11.876;2023-04-30T11:47:38;5.13;;;3.33;;
14584;SDS011;7379;51.506;11.876;2023-04-30T11:50:07;5.90;;;3.30;;
14584;SDS011;7379;51.506;11.876;2023-04-30T11:52:35;5.50;;;3.40;;
14584;SDS011;7379;51.506;11.876;2023-04-30T11:55:04;5.82;;;3.60;;
14584;SDS011;7379;51.506;11.876;2023-04-30T11:57:41;6.18;;;3.35;;
14584;SDS011;7379;51.506;11.876;2023-04-30T12:00:12;6.00;;;3.67;;
14584;SDS011;7379;51.506;11.876;2023-04-30T12:02:40;5.57;;;3.22;;
14584;SDS011;7379;51.506;11.876;2023-04-30T12:05:14;7.35;;;3.60;;
14584;SDS011;7379;51.506;11.876;2023-04-30T12:07:50;8.60;;;3.88;;
14584;SDS011;7379;51.506;11.876;2023-04-30T12:10:21;15.30;;;4.43;;
14584;SDS011;7379;51.506;11.876;2023-04-30T12:12:48;9.00;;;4.20;;
14584;SDS011;7379;51.506;11.876;2023-04-30T12:15:17;7.03;;;3.95;;
14584;SDS011;7379;51.506;11.876;2023-04-30T12:17:47;7.22;;;3.97;;
14584;SDS011;7379;51.506;11.876;2023-04-30T12:20:14;6.10;;;3.70;;
14584;SDS011;7379;51.506;11.876;2023-04-30T12:22:41;7.70;;;3.83;;
14584;SDS011;7379;51.506;11.876;2023-04-30T12:25:12;5.45;;;3.55;;
14584;SDS011;7379;51.506;11.876;2023-04-30T12:27:40;7.25;;;3.90;;
14584;SDS011;7379;51.506;11.876;2023-04-30T12:30:07;5.55;;;3.55;;
14584;SDS011;7379;51.506;11.876;2023-04-30T12:32:38;6.07;;;4.20;;
14584;SDS011;7379;51.506;11.876;2023-04-30T12:35:07;8.98;;;4.00;;
14584;SDS011;7379;51.506;11.876;2023-04-30T12:37:40;6.40;;;4.07;;
14584;SDS011;7379;51.506;11.876;2023-04-30T12:40:07;8.05;;;4.20;;
14584;SDS011;7379;51.506;11.876;2023-04-30T12:42:36;6.13;;;4.05;;
14584;SDS011;7379;51.506;11.876;2023-04-30T12:45:03;8.80;;;4.00;;
14584;SDS011;7379;51.506;11.876;2023-04-30T12:47:31;8.27;;;4.50;;
14584;SDS011;7379;51.506;11.876;2023-04-30T12:49:58;10.45;;;4.22;;
14584;SDS011;7379;51.506;11.876;2023-04-30T12:52:25;7.93;;;3.90;;
14584;SDS011;7379;51.506;11.876;2023-04-30T12:54:52;6.03;;;4.00;;
14584;SDS011;7379;51.506;11.876;2023-04-30T12:57:20;7.65;;;3.88;;
14584;SDS011;7379;51.506;11.876;2023-04-30T12:59:58;6.45;;;3.67;;
14584;SDS011;7379;51.506;11.876;2023-04-30T13:02:26;8.48;;;4.03;;
14584;SDS011;7379;51.506;11.876;2023-04-30T13:04:55;6.68;;;4.10;;
14584;SDS011;7379;51.506;11.876;2023-04-30T13:07:22;7.82;;;3.92;;
14584;SDS011;7379;51.506;11.876;2023-04-30T13:09:49;56.60;;;7.60;;
14584;SDS011;7379;51.506;11.876;2023-04-30T13:12:16;169.32;;;13.35;;
14584;SDS011;7379;51.506;11.876;2023-04-30T13:14:43;35.90;;;5.70;;
14584;SDS011;7379;51.506;11.876;2023-04-30T13:17:11;14.40;;;4.32;;
14584;SDS011;7379;51.506;11.876;2023-04-30T13:19:38;11.88;;;4.10;;
14584;SDS011;7379;51.506;11.876;2023-04-30T13:22:05;17.60;;;4.28;;
14584;SDS011;7379;51.506;11.876;2023-04-30T13:24:32;7.00;;;3.60;;
14584;SDS011;7379;51.506;11.876;2023-04-30T13:26:59;7.28;;;3.70;;
14584;SDS011;7379;51.506;11.876;2023-04-30T13:29:26;6.03;;;3.30;;
14584;SDS011;7379;51.506;11.876;2023-04-30T13:31:53;7.18;;;3.83;;
14584;SDS011;7379;51.506;11.876;2023-04-30T13:34:21;10.30;;;3.30;;
14584;SDS011;7379;51.506;11.876;2023-04-30T13:36:48;5.80;;;3.30;;
14584;SDS011;7379;51.506;11.876;2023-04-30T13:39:16;8.80;;;3.78;;
14584;SDS011;7379;51.506;11.876;2023-04-30T13:41:43;7.13;;;3.60;;
14584;SDS011;7379;51.506;11.876;2023-04-30T13:44:11;6.88;;;3.38;;
14584;SDS011;7379;51.506;11.876;2023-04-30T13:46:38;7.97;;;3.70;;
14584;SDS011;7379;51.506;11.876;2023-04-30T13:49:05;8.50;;;3.60;;
14584;SDS011;7379;51.506;11.876;2023-04-30T13:51:33;5.80;;;3.22;;
14584;SDS011;7379;51.506;11.876;2023-04-30T13:54:00;4.93;;;2.80;;
14584;SDS011;7379;51.506;11.876;2023-04-30T13:56:27;5.78;;;3.25;;
14584;SDS011;7379;51.506;11.876;2023-04-30T13:58:54;5.75;;;3.47;;
14584;SDS011;7379;51.506;11.876;2023-04-30T14:01:21;6.45;;;3.63;;
14584;SDS011;7379;51.506;11.876;2023-04-30T14:03:47;7.45;;;3.40;;
14584;SDS011;7379;51.506;11.876;2023-04-30T14:06:14;4.53;;;3.05;;
14584;SDS011;7379;51.506;11.876;2023-04-30T14:08:43;6.10;;;3.38;;
14584;SDS011;7379;51.506;11.876;2023-04-30T14:11:10;5.63;;;3.40;;
14584;SDS011;7379;51.506;11.876;2023-04-30T14:13:36;5.00;;;3.10;;
14584;SDS011;7379;51.506;11.876;2023-04-30T14:16:03;8.75;;;3.45;;
14584;SDS011;7379;51.506;11.876;2023-04-30T14:18:31;5.63;;;3.08;;
14584;SDS011;7379;51.506;11.876;2023-04-30T14:20:57;5.18;;;3.00;;
14584;SDS011;7379;51.506;11.876;2023-04-30T14:23:24;4.63;;;3.03;;
14584;SDS011;7379;51.506;11.876;2023-04-30T14:25:54;5.82;;;3.17;;
14584;SDS011;7379;51.506;11.876;2023-04-30T14:28:21;5.13;;;3.50;;
14584;SDS011;7379;51.506;11.876;2023-04-30T14:30:48;6.18;;;3.55;;
14584;SDS011;7379;51.506;11.876;2023-04-30T14:33:14;5.70;;;3.00;;
14584;SDS011;7379;51.506;11.876;2023-04-30T14:35:41;4.72;;;3.10;;
14584;SDS011;7379;51.506;11.876;2023-04-30T14:38:09;6.50;;;3.05;;
14584;SDS011;7379;51.506;11.876;2023-04-30T14:40:36;5.35;;;2.95;;
14584;SDS011;7379;51.506;11.876;2023-04-30T14:43:04;4.20;;;2.67;;
14584;SDS011;7379;51.506;11.876;2023-04-30T14:45:31;5.97;;;3.38;;
14584;SDS011;7379;51.506;11.876;2023-04-30T14:47:58;6.75;;;3.25;;
14584;SDS011;7379;51.506;11.876;2023-04-30T14:50:25;4.78;;;2.92;;
14584;SDS011;7379;51.506;11.876;2023-04-30T14:52:51;5.03;;;2.80;;
14584;SDS011;7379;51.506;11.876;2023-04-30T14:55:18;3.20;;;2.58;;
14584;SDS011;7379;51.506;11.876;2023-04-30T14:57:45;6.07;;;2.92;;